Decoded Metar for KLND (LANDER in WY, USA) (IATA:LND) | Meteo·Mobile Aviation Weather
aviador You're here:

KLND Decoded Metar

LANDER in WY, USA
Report Time2019-02-20 18:53:00
UTC Time2019-02-20 19:21:52
Flight Rules vfr VFR
WindCalm
Visibility9999 m
Phenomena:N/A
Clouds:Broken 100 Hf
Expected CloudBase > 4,800 ft AGL from Temp-Dew spread
Ceiling10,000 ft
Temp-6°C (ISA -10)
Dew Point-18°C (38% RH)
AAT-9.5°C
QNH1000 hPa
Density Alt4,823 ft
Elevation5,558 ft
Report Wrong Elevation
Raw Report
KLND 201853Z AUTO 00000KT 10SM BKN100 M06/M18 A2954 RMK AO2 SLP057
T10611178=

Extra information for KLND:More info

Metar Taf Metar & Taf Last 4 Metars F.Rules Stats Wind Profile Meteogram Temp Stats Airport Information Weather charts Add Link Nearby VenuesMetar ALERT Operation Metar Decoded Social comments

AIRNAV info for KLND